Time;durP1;ratioP1;P1;durP2;ratioP2;P2;SDS_P1;SDS_P2;PMS_P1;PMS_P2;Temp;Humidity;BMP_temperature;BMP_pressure;BME280_temperature;BME280_humidity;BME280_pressure;Samples;Min_cycle;Max_cycle;Signal;HPM_P1;HPM_P2
2021/04/23 00:01:34;;;;;;;12.57;5.73;;;;;;;;;;5022559;28;20252;-52
2021/04/23 00:04:06;;;;;;;15.20;5.67;;;;;;;;;;5021013;28;20844;-54
2021/04/23 00:06:37;;;;;;;11.80;5.83;;;;;;;;;;5020622;28;20214;-53
2021/04/23 00:09:15;;;;;;;12.50;5.33;;;;;;;;;;5020372;28;20281;-53
2021/04/23 00:11:51;;;;;;;13.70;5.93;;;;;;;;;;5025103;28;20611;-53
2021/04/23 00:14:21;;;;;;;13.57;5.80;;;;;;;;;;5020728;28;20193;-52
2021/04/23 00:16:51;;;;;;;16.80;6.53;;;;;;;;;;5021885;28;20218;-53
2021/04/23 00:19:24;;;;;;;11.23;6.20;;;;;;;;;;5021451;28;20209;-50
2021/04/23 00:21:50;;;;;;;13.30;6.13;;;;;;;;;;5025189;28;20210;-53
2021/04/23 00:24:16;;;;;;;10.90;5.37;;;;;;;;;;5019145;28;20194;-53
2021/04/23 00:26:44;;;;;;;14.67;6.40;;;;;;;;;;5023927;28;20210;-54
2021/04/23 00:29:15;;;;;;;12.23;6.20;;;;;;;;;;5026855;28;20273;-55
2021/04/23 00:31:41;;;;;;;16.07;6.30;;;;;;;;;;5017776;28;20225;-52
2021/04/23 00:34:11;;;;;;;13.80;6.03;;;;;;;;;;5024712;28;20255;-53
2021/04/23 00:36:41;;;;;;;13.73;6.77;;;;;;;;;;5021959;28;20309;-53
2021/04/23 00:39:07;;;;;;;20.37;6.87;;;;;;;;;;5027525;28;20198;-54
2021/04/23 00:41:38;;;;;;;17.50;6.17;;;;;;;;;;5022447;28;20218;-53
2021/04/23 00:44:04;;;;;;;13.23;6.93;;;;;;;;;;5019018;28;20194;-53
2021/04/23 00:46:34;;;;;;;10.20;6.20;;;;;;;;;;5022152;28;20214;-52
2021/04/23 00:49:00;;;;;;;13.83;6.13;;;;;;;;;;5023945;28;20198;-53
2021/04/23 00:51:35;;;;;;;15.50;6.10;;;;;;;;;;5027329;28;20182;-53
2021/04/23 00:54:06;;;;;;;10.23;6.23;;;;;;;;;;5021084;28;20547;-52
2021/04/23 00:56:43;;;;;;;13.43;5.83;;;;;;;;;;5021433;28;20210;-54
2021/04/23 00:59:13;;;;;;;15.80;6.23;;;;;;;;;;5018953;28;20197;-52
2021/04/23 01:02:01;;;;;;;13.80;6.33;;;;;;;;;;5026737;28;20551;-53
2021/04/23 01:04:28;;;;;;;16.10;6.63;;;;;;;;;;5023143;28;20199;-53
2021/04/23 01:06:58;;;;;;;14.80;6.17;;;;;;;;;;5014592;28;20201;-54
2021/04/23 01:09:29;;;;;;;15.17;6.57;;;;;;;;;;5016401;28;20201;-54
2021/04/23 01:11:56;;;;;;;13.63;6.50;;;;;;;;;;5022576;28;20276;-54
2021/04/23 01:14:25;;;;;;;14.70;6.40;;;;;;;;;;5023224;28;20689;-52
2021/04/23 01:16:53;;;;;;;18.43;6.27;;;;;;;;;;5022587;28;20206;-53
2021/04/23 01:19:23;;;;;;;13.10;6.33;;;;;;;;;;5023900;28;20286;-54
2021/04/23 01:21:52;;;;;;;11.67;6.23;;;;;;;;;;5018867;28;20229;-52
2021/04/23 01:24:19;;;;;;;12.03;6.60;;;;;;;;;;5012458;28;20206;-52
2021/04/23 01:26:50;;;;;;;12.80;7.53;;;;;;;;;;5023274;28;20206;-54
2021/04/23 01:29:21;;;;;;;15.30;6.97;;;;;;;;;;5024253;28;20260;-54
2021/04/23 01:31:51;;;;;;;14.40;6.40;;;;;;;;;;5024522;28;20198;-54
2021/04/23 01:34:29;;;;;;;13.23;6.23;;;;;;;;;;5019316;28;20546;-54
2021/04/23 01:36:58;;;;;;;13.33;5.50;;;;;;;;;;5024835;28;20210;-56
2021/04/23 01:39:30;;;;;;;12.07;5.70;;;;;;;;;;5025460;28;20705;-53
2021/04/23 01:41:56;;;;;;;14.43;6.70;;;;;;;;;;5027675;28;20221;-53
2021/04/23 01:44:22;;;;;;;14.60;6.07;;;;;;;;;;5027697;28;20206;-53
2021/04/23 01:46:51;;;;;;;12.40;6.27;;;;;;;;;;5024720;28;20207;-52
2021/04/23 01:49:21;;;;;;;12.23;5.90;;;;;;;;;;5020548;28;20206;-52
2021/04/23 01:51:52;;;;;;;14.53;5.97;;;;;;;;;;5023832;28;20238;-52
2021/04/23 01:54:20;;;;;;;10.37;5.90;;;;;;;;;;5021128;28;20222;-52
2021/04/23 01:56:49;;;;;;;13.10;5.40;;;;;;;;;;5030482;28;20253;-52
2021/04/23 01:59:17;;;;;;;9.97;5.27;;;;;;;;;;5024188;28;20696;-54
2021/04/23 02:01:43;;;;;;;11.60;5.70;;;;;;;;;;5021817;28;20316;-53
2021/04/23 02:04:11;;;;;;;12.00;4.83;;;;;;;;;;5025289;28;20285;-52
2021/04/23 02:06:39;;;;;;;11.67;4.90;;;;;;;;;;5029918;28;20239;-52
2021/04/23 02:09:06;;;;;;;12.33;5.30;;;;;;;;;;5028829;28;20241;-52
2021/04/23 02:11:32;;;;;;;11.63;5.60;;;;;;;;;;5023355;28;20291;-51
2021/04/23 02:14:01;;;;;;;10.50;5.20;;;;;;;;;;5026813;28;20206;-53
2021/04/23 02:16:31;;;;;;;10.00;5.20;;;;;;;;;;5028957;28;20738;-53
2021/04/23 02:18:57;;;;;;;11.73;5.07;;;;;;;;;;5025515;28;20658;-53
2021/04/23 02:21:30;;;;;;;11.60;5.13;;;;;;;;;;5024475;28;20214;-53
2021/04/23 02:23:59;;;;;;;11.67;4.90;;;;;;;;;;5021005;28;20237;-52
2021/04/23 02:26:29;;;;;;;11.20;4.83;;;;;;;;;;5023606;28;20333;-53
2021/04/23 02:28:57;;;;;;;11.97;5.60;;;;;;;;;;5027512;28;20193;-52
2021/04/23 02:31:27;;;;;;;12.90;5.27;;;;;;;;;;5024880;28;20193;-53
2021/04/23 02:33:58;;;;;;;12.43;5.03;;;;;;;;;;5023613;28;20190;-52
2021/04/23 02:36:28;;;;;;;13.73;5.33;;;;;;;;;;5030483;28;20303;-52
2021/04/23 02:38:53;;;;;;;10.73;5.50;;;;;;;;;;5024320;28;20240;-51
2021/04/23 02:41:21;;;;;;;12.80;5.47;;;;;;;;;;5026630;28;20767;-53
2021/04/23 02:43:51;;;;;;;10.83;6.27;;;;;;;;;;5023877;28;20206;-52
2021/04/23 02:46:20;;;;;;;13.00;5.20;;;;;;;;;;5023405;28;20218;-53
2021/04/23 02:48:50;;;;;;;11.47;5.87;;;;;;;;;;5047251;28;20190;-53
2021/04/23 02:51:28;;;;;;;13.83;5.70;;;;;;;;;;5018496;28;20749;-53
2021/04/23 02:53:55;;;;;;;9.00;5.40;;;;;;;;;;5023818;28;20638;-53
2021/04/23 02:56:22;;;;;;;14.63;5.53;;;;;;;;;;5022465;28;20293;-54
2021/04/23 02:58:48;;;;;;;14.33;5.57;;;;;;;;;;5025169;28;20183;-54
2021/04/23 03:01:17;;;;;;;13.00;5.13;;;;;;;;;;5027968;28;20207;-53
2021/04/23 03:03:43;;;;;;;12.93;6.03;;;;;;;;;;5022972;28;20185;-52
2021/04/23 03:06:09;;;;;;;15.93;5.17;;;;;;;;;;5019659;28;20298;-52
2021/04/23 03:08:38;;;;;;;13.37;5.60;;;;;;;;;;5030246;28;20582;-53
2021/04/23 03:11:14;;;;;;;15.23;5.40;;;;;;;;;;5026090;28;20212;-53
2021/04/23 03:13:45;;;;;;;14.80;5.93;;;;;;;;;;5021692;28;20182;-53
2021/04/23 03:16:13;;;;;;;10.83;5.77;;;;;;;;;;5020008;28;20232;-53
2021/04/23 03:18:41;;;;;;;11.70;5.80;;;;;;;;;;5021011;28;20187;-53
2021/04/23 03:21:12;;;;;;;13.73;5.20;;;;;;;;;;5029155;28;20241;-53
2021/04/23 03:23:41;;;;;;;11.23;5.07;;;;;;;;;;5018318;28;20198;-51
2021/04/23 03:26:09;;;;;;;13.47;5.40;;;;;;;;;;5022078;28;20253;-52
2021/04/23 03:28:37;;;;;;;9.67;4.70;;;;;;;;;;5022536;28;20187;-52
2021/04/23 03:31:06;;;;;;;11.77;5.33;;;;;;;;;;5023499;28;20721;-53
2021/04/23 03:33:35;;;;;;;9.93;4.23;;;;;;;;;;5025273;28;20190;-51
2021/04/23 03:36:06;;;;;;;11.83;4.70;;;;;;;;;;5026551;28;20643;-52
2021/04/23 03:38:37;;;;;;;14.40;5.30;;;;;;;;;;5027123;28;20286;-55
2021/04/23 03:41:12;;;;;;;10.07;5.17;;;;;;;;;;5020690;28;20210;-52
2021/04/23 03:43:40;;;;;;;10.27;4.63;;;;;;;;;;5039554;28;20196;-53
2021/04/23 03:46:10;;;;;;;14.03;4.90;;;;;;;;;;5025236;28;20295;-54
2021/04/23 03:48:38;;;;;;;14.07;5.50;;;;;;;;;;5024306;28;20213;-51
2021/04/23 03:51:08;;;;;;;11.27;5.30;;;;;;;;;;5023915;28;20185;-53
2021/04/23 03:53:38;;;;;;;16.20;5.57;;;;;;;;;;5023987;28;20734;-52
2021/04/23 03:56:05;;;;;;;13.20;5.80;;;;;;;;;;5018329;28;20783;-52
2021/04/23 03:58:33;;;;;;;12.77;5.20;;;;;;;;;;5031948;28;20186;-52
2021/04/23 04:01:08;;;;;;;14.03;4.93;;;;;;;;;;5027998;28;20244;-53
2021/04/23 04:03:36;;;;;;;13.73;5.87;;;;;;;;;;5025927;28;20636;-51
2021/04/23 04:06:01;;;;;;;9.30;5.30;;;;;;;;;;5024411;28;20737;-52
2021/04/23 04:08:26;;;;;;;9.87;5.57;;;;;;;;;;5023745;28;20219;-54
2021/04/23 04:10:52;;;;;;;11.00;5.33;;;;;;;;;;5025251;28;20610;-54
2021/04/23 04:13:22;;;;;;;14.50;5.67;;;;;;;;;;5022640;28;20187;-52
2021/04/23 04:15:52;;;;;;;13.10;5.60;;;;;;;;;;5025759;28;20218;-50
2021/04/23 04:18:21;;;;;;;13.33;5.60;;;;;;;;;;5023063;28;20612;-50
2021/04/23 04:20:50;;;;;;;13.37;5.60;;;;;;;;;;5026369;28;20725;-51
2021/04/23 04:23:19;;;;;;;10.60;5.47;;;;;;;;;;5024513;28;20617;-53
2021/04/23 04:25:52;;;;;;;14.27;6.07;;;;;;;;;;5024584;28;20219;-54
2021/04/23 04:28:19;;;;;;;13.87;6.17;;;;;;;;;;5024785;28;20194;-52
2021/04/23 04:30:47;;;;;;;12.87;6.33;;;;;;;;;;5026592;28;20189;-53
2021/04/23 04:33:17;;;;;;;12.30;6.40;;;;;;;;;;5021030;28;20295;-51
2021/04/23 04:35:46;;;;;;;12.23;6.20;;;;;;;;;;5038854;28;20352;-53
2021/04/23 04:38:15;;;;;;;11.97;5.83;;;;;;;;;;5024454;28;20190;-53
2021/04/23 04:40:44;;;;;;;11.73;6.00;;;;;;;;;;5025100;28;20190;-53
2021/04/23 04:43:12;;;;;;;11.83;5.53;;;;;;;;;;5020537;28;20182;-53
2021/04/23 04:45:42;;;;;;;11.53;5.90;;;;;;;;;;5020473;28;20289;-53
2021/04/23 04:48:11;;;;;;;17.40;6.10;;;;;;;;;;5028946;28;20187;-53
2021/04/23 04:50:45;;;;;;;14.00;5.83;;;;;;;;;;5020949;28;20583;-51
2021/04/23 04:53:13;;;;;;;13.63;6.13;;;;;;;;;;5028269;28;20182;-52
2021/04/23 04:55:41;;;;;;;12.40;5.53;;;;;;;;;;5019516;28;20234;-53
2021/04/23 04:58:09;;;;;;;16.73;5.47;;;;;;;;;;5020409;28;20199;-53
2021/04/23 05:00:38;;;;;;;11.80;5.03;;;;;;;;;;5024224;28;20201;-52
2021/04/23 05:03:09;;;;;;;12.97;5.53;;;;;;;;;;5017124;28;20642;-52
2021/04/23 05:05:39;;;;;;;11.17;5.47;;;;;;;;;;5022738;28;20221;-53
2021/04/23 05:08:05;;;;;;;12.40;5.73;;;;;;;;;;5021446;28;20264;-52
2021/04/23 05:10:30;;;;;;;14.70;6.10;;;;;;;;;;5034513;28;20217;-51
2021/04/23 05:12:56;;;;;;;11.87;4.97;;;;;;;;;;5023250;28;20189;-51
2021/04/23 05:15:24;;;;;;;10.47;5.33;;;;;;;;;;5023825;28;20256;-52
2021/04/23 05:17:52;;;;;;;15.13;5.63;;;;;;;;;;5029159;28;20194;-52
2021/04/23 05:20:19;;;;;;;11.53;5.13;;;;;;;;;;5028981;28;20191;-52
2021/04/23 05:22:47;;;;;;;13.37;4.83;;;;;;;;;;5026208;28;20214;-49
2021/04/23 05:25:22;;;;;;;10.07;5.30;;;;;;;;;;5020489;28;20241;-52
2021/04/23 05:27:50;;;;;;;9.70;5.03;;;;;;;;;;5027253;28;20258;-51
2021/04/23 05:30:18;;;;;;;11.50;4.93;;;;;;;;;;5026377;28;20195;-50
2021/04/23 05:32:49;;;;;;;9.03;4.57;;;;;;;;;;5029918;28;20274;-52
2021/04/23 05:35:21;;;;;;;17.23;6.27;;;;;;;;;;5019649;28;20695;-52
2021/04/23 05:37:50;;;;;;;11.53;5.10;;;;;;;;;;5027327;28;20255;-51
2021/04/23 05:40:27;;;;;;;13.80;5.50;;;;;;;;;;5030971;28;20190;-52
2021/04/23 05:42:52;;;;;;;13.33;5.57;;;;;;;;;;5024757;28;20220;-52
2021/04/23 05:45:20;;;;;;;13.07;5.03;;;;;;;;;;5020688;28;20203;-50
2021/04/23 05:47:50;;;;;;;12.50;5.57;;;;;;;;;;5033352;28;20198;-50
2021/04/23 05:50:18;;;;;;;8.60;4.77;;;;;;;;;;5023283;28;20272;-49
2021/04/23 05:52:49;;;;;;;10.60;4.93;;;;;;;;;;5047372;28;20234;-51
2021/04/23 05:55:17;;;;;;;11.97;5.43;;;;;;;;;;5025181;28;20305;-52
2021/04/23 05:57:45;;;;;;;10.83;5.47;;;;;;;;;;5026288;28;20218;-51
2021/04/23 06:00:18;;;;;;;12.27;5.33;;;;;;;;;;5026018;28;20251;-51
2021/04/23 06:02:44;;;;;;;8.50;5.50;;;;;;;;;;5028223;28;20225;-49
2021/04/23 06:05:10;;;;;;;14.60;5.17;;;;;;;;;;5028569;28;20771;-52
2021/04/23 06:07:38;;;;;;;10.40;5.13;;;;;;;;;;5032492;28;20186;-52
2021/04/23 06:10:10;;;;;;;10.20;4.50;;;;;;;;;;5031969;28;20190;-50
2021/04/23 06:12:36;;;;;;;13.50;4.93;;;;;;;;;;5023101;28;20589;-52
2021/04/23 06:15:05;;;;;;;14.07;5.67;;;;;;;;;;5024136;28;20260;-51
2021/04/23 06:17:31;;;;;;;9.90;4.80;;;;;;;;;;5030389;28;20194;-52
2021/04/23 06:19:56;;;;;;;10.37;5.57;;;;;;;;;;5023458;28;20245;-50
2021/04/23 06:22:22;;;;;;;15.47;5.50;;;;;;;;;;5022759;28;20219;-52
2021/04/23 06:24:50;;;;;;;12.40;5.57;;;;;;;;;;5019877;28;20256;-52
2021/04/23 06:27:20;;;;;;;12.73;5.37;;;;;;;;;;5020338;28;20220;-52
2021/04/23 06:29:47;;;;;;;15.03;5.70;;;;;;;;;;5026831;28;20202;-49
2021/04/23 06:32:17;;;;;;;12.60;5.87;;;;;;;;;;5019734;28;20226;-53
2021/04/23 06:34:43;;;;;;;12.10;5.80;;;;;;;;;;5016308;28;20205;-52
2021/04/23 06:37:10;;;;;;;14.03;5.87;;;;;;;;;;5041380;28;20198;-50
2021/04/23 06:39:38;;;;;;;14.77;6.37;;;;;;;;;;5017124;28;20217;-52
2021/04/23 06:42:08;;;;;;;10.57;6.37;;;;;;;;;;5019263;28;20302;-52
2021/04/23 06:44:38;;;;;;;13.87;6.93;;;;;;;;;;5020790;28;20706;-51
2021/04/23 06:47:03;;;;;;;14.37;6.60;;;;;;;;;;5016175;28;20253;-51
2021/04/23 06:49:31;;;;;;;14.13;6.43;;;;;;;;;;5024405;28;20194;-51
2021/04/23 06:52:01;;;;;;;11.73;5.67;;;;;;;;;;5014192;28;20191;-50
2021/04/23 06:54:26;;;;;;;12.53;6.07;;;;;;;;;;5017614;28;20613;-52
2021/04/23 06:56:59;;;;;;;10.50;5.53;;;;;;;;;;5022963;28;20211;-51
2021/04/23 06:59:29;;;;;;;11.53;7.27;;;;;;;;;;5022610;28;20659;-50
2021/04/23 07:01:54;;;;;;;12.50;5.57;;;;;;;;;;5031294;28;20211;-49
2021/04/23 07:04:19;;;;;;;12.23;5.83;;;;;;;;;;5030515;28;20190;-51
2021/04/23 07:06:45;;;;;;;13.63;5.20;;;;;;;;;;5024455;28;20207;-51
2021/04/23 07:09:17;;;;;;;11.43;5.90;;;;;;;;;;5025632;28;20190;-50
2021/04/23 07:11:45;;;;;;;11.47;5.57;;;;;;;;;;5022725;28;20187;-53
2021/04/23 07:14:10;;;;;;;12.30;5.53;;;;;;;;;;5015025;28;20209;-51
2021/04/23 07:16:40;;;;;;;12.57;6.00;;;;;;;;;;5019184;28;20230;-51
2021/04/23 07:19:06;;;;;;;14.33;5.93;;;;;;;;;;5017200;28;20248;-50
2021/04/23 07:21:33;;;;;;;8.37;5.17;;;;;;;;;;5028981;28;20207;-51
2021/04/23 07:23:59;;;;;;;10.83;5.63;;;;;;;;;;5041477;28;20214;-51
2021/04/23 07:26:29;;;;;;;11.10;5.37;;;;;;;;;;5018217;28;20245;-50
2021/04/23 07:28:57;;;;;;;12.00;5.97;;;;;;;;;;5020227;28;20961;-50
2021/04/23 07:31:23;;;;;;;11.40;6.00;;;;;;;;;;5024177;28;20282;-49
2021/04/23 07:33:51;;;;;;;13.23;5.63;;;;;;;;;;5023365;28;20195;-52
2021/04/23 07:36:18;;;;;;;9.60;6.37;;;;;;;;;;5020506;28;20218;-51
2021/04/23 07:38:48;;;;;;;9.77;5.23;;;;;;;;;;5020585;28;20199;-51
2021/04/23 07:41:16;;;;;;;8.90;5.00;;;;;;;;;;5022044;28;20217;-51
2021/04/23 07:43:43;;;;;;;10.10;5.73;;;;;;;;;;5021488;28;20210;-52
2021/04/23 07:46:11;;;;;;;11.17;5.23;;;;;;;;;;5029156;28;20221;-52
2021/04/23 07:48:37;;;;;;;10.67;5.07;;;;;;;;;;5028349;28;21011;-50
2021/04/23 07:51:05;;;;;;;13.90;4.90;;;;;;;;;;5023415;28;20191;-51
2021/04/23 07:53:30;;;;;;;9.67;4.40;;;;;;;;;;5028823;28;20198;-50
2021/04/23 07:55:56;;;;;;;10.63;4.87;;;;;;;;;;5020721;28;20206;-50
2021/04/23 07:58:26;;;;;;;14.07;5.37;;;;;;;;;;5022031;28;20221;-51
2021/04/23 08:00:52;;;;;;;9.57;4.30;;;;;;;;;;5031403;28;20267;-51
2021/04/23 08:03:19;;;;;;;11.87;4.57;;;;;;;;;;5034138;28;20660;-52
2021/04/23 08:05:47;;;;;;;11.80;4.50;;;;;;;;;;5019732;28;20663;-51
2021/04/23 08:08:17;;;;;;;12.23;4.40;;;;;;;;;;5028875;28;20191;-51
2021/04/23 08:10:44;;;;;;;10.33;4.70;;;;;;;;;;5029232;28;20317;-52
2021/04/23 08:13:09;;;;;;;8.47;4.40;;;;;;;;;;5022060;28;20340;-50
2021/04/23 08:15:36;;;;;;;10.90;4.33;;;;;;;;;;5026127;28;20306;-51
2021/04/23 08:18:02;;;;;;;9.67;4.03;;;;;;;;;;5020672;28;20321;-50
2021/04/23 08:20:28;;;;;;;9.50;4.30;;;;;;;;;;5022495;28;20341;-51
2021/04/23 08:22:55;;;;;;;7.30;4.33;;;;;;;;;;5037425;28;20289;-51
2021/04/23 08:25:23;;;;;;;9.60;4.50;;;;;;;;;;5026082;28;20275;-51
2021/04/23 08:27:51;;;;;;;10.47;4.90;;;;;;;;;;5018785;28;20194;-51
2021/04/23 08:30:17;;;;;;;14.03;5.03;;;;;;;;;;5033236;28;20190;-48
2021/04/23 08:32:48;;;;;;;14.67;5.13;;;;;;;;;;5029013;28;20201;-50
2021/04/23 08:35:15;;;;;;;7.80;4.33;;;;;;;;;;5023012;28;20222;-51
2021/04/23 08:37:44;;;;;;;13.10;4.47;;;;;;;;;;5027616;28;20704;-51
2021/04/23 08:40:14;;;;;;;9.03;4.03;;;;;;;;;;5024048;28;20183;-49
2021/04/23 08:42:39;;;;;;;11.80;4.40;;;;;;;;;;5019015;28;20225;-51
2021/04/23 08:45:14;;;;;;;9.37;3.80;;;;;;;;;;5017562;28;20211;-52
2021/04/23 08:47:44;;;;;;;11.47;5.07;;;;;;;;;;5015397;28;20198;-51
2021/04/23 08:50:11;;;;;;;10.47;4.37;;;;;;;;;;5019309;28;20232;-51
2021/04/23 08:52:43;;;;;;;11.17;5.17;;;;;;;;;;5023429;28;20203;-52
2021/04/23 08:55:18;;;;;;;8.73;4.37;;;;;;;;;;5034430;28;20399;-51
2021/04/23 08:57:46;;;;;;;12.73;4.70;;;;;;;;;;5017837;28;20281;-51
2021/04/23 09:00:12;;;;;;;10.57;4.70;;;;;;;;;;5027762;28;20588;-51
2021/04/23 09:02:40;;;;;;;10.33;4.60;;;;;;;;;;5018697;28;20723;-51
2021/04/23 09:05:06;;;;;;;9.03;4.93;;;;;;;;;;5023148;28;20234;-50
2021/04/23 09:07:34;;;;;;;10.33;4.70;;;;;;;;;;5022640;28;20203;-51
2021/04/23 09:10:11;;;;;;;10.93;4.47;;;;;;;;;;5022319;28;20832;-52
2021/04/23 09:12:42;;;;;;;8.17;4.30;;;;;;;;;;5022482;28;20566;-52
2021/04/23 09:15:26;;;;;;;9.70;4.17;;;;;;;;;;5023618;28;20292;-52
2021/04/23 09:18:20;;;;;;;9.57;4.10;;;;;;;;;;5025937;28;20756;-51
2021/04/23 09:20:48;;;;;;;12.70;4.28;;;;;;;;;;5024404;28;20869;-52
2021/04/23 09:23:21;;;;;;;7.53;4.43;;;;;;;;;;5024909;28;20244;-50
2021/04/23 09:25:58;;;;;;;8.10;4.25;;;;;;;;;;5020262;28;20206;-51
2021/04/23 09:28:39;;;;;;;9.55;4.65;;;;;;;;;;5027077;28;20194;-51
2021/04/23 09:31:28;;;;;;;10.68;4.90;;;;;;;;;;5034370;28;20211;-51
2021/04/23 09:33:58;;;;;;;7.68;4.07;;;;;;;;;;5026175;28;20198;-51
2021/04/23 09:36:37;;;;;;;7.28;4.13;;;;;;;;;;5022633;28;20214;-51
2021/04/23 09:39:13;;;;;;;9.20;4.45;;;;;;;;;;5025401;28;20197;-51
2021/04/23 09:42:03;;;;;;;11.35;4.07;;;;;;;;;;5014471;28;20201;-52
2021/04/23 09:44:33;;;;;;;8.27;4.63;;;;;;;;;;5023408;28;20194;-52
2021/04/23 09:47:18;;;;;;;10.55;4.47;;;;;;;;;;5023748;28;20197;-51
2021/04/23 09:49:49;;;;;;;8.85;4.35;;;;;;;;;;5024138;28;20217;-52
2021/04/23 09:52:15;;;;;;;9.82;4.68;;;;;;;;;;5034008;28;20185;-50
2021/04/23 09:54:49;;;;;;;8.23;5.15;;;;;;;;;;5018121;28;20190;-52
2021/04/23 09:57:22;;;;;;;9.35;4.30;;;;;;;;;;5021763;28;20265;-51
2021/04/23 09:59:49;;;;;;;7.82;4.30;;;;;;;;;;5017600;28;20178;-50
2021/04/23 10:02:17;;;;;;;8.85;3.90;;;;;;;;;;5027803;28;20214;-51
2021/04/23 10:04:46;;;;;;;7.63;3.88;;;;;;;;;;5024245;28;20245;-51
2021/04/23 10:07:22;;;;;;;9.98;4.35;;;;;;;;;;5030388;28;20205;-49
2021/04/23 10:09:56;;;;;;;8.55;4.18;;;;;;;;;;5024231;28;20191;-50
2021/04/23 10:12:47;;;;;;;7.10;3.80;;;;;;;;;;5028205;28;20179;-50
2021/04/23 10:15:19;;;;;;;10.83;4.23;;;;;;;;;;5025901;28;20264;-50
2021/04/23 10:17:53;;;;;;;7.57;4.28;;;;;;;;;;5023146;28;20230;-52
2021/04/23 10:20:31;;;;;;;8.70;4.45;;;;;;;;;;5015099;28;20286;-47
2021/04/23 10:23:01;;;;;;;8.63;4.63;;;;;;;;;;5020258;28;20210;-50
2021/04/23 10:25:28;;;;;;;10.40;4.68;;;;;;;;;;5025940;28;20210;-51
2021/04/23 10:27:57;;;;;;;12.32;4.32;;;;;;;;;;5026938;28;20194;-52
2021/04/23 10:30:29;;;;;;;15.45;4.70;;;;;;;;;;5022710;28;20190;-48
2021/04/23 10:32:59;;;;;;;7.93;3.97;;;;;;;;;;5033141;28;20190;-47
2021/04/23 10:35:25;;;;;;;11.50;4.18;;;;;;;;;;5019890;28;20216;-51
2021/04/23 10:38:02;;;;;;;5.65;3.25;;;;;;;;;;5026060;28;20183;-52
2021/04/23 10:40:32;;;;;;;12.48;4.40;;;;;;;;;;5023397;28;20689;-52
2021/04/23 10:43:03;;;;;;;9.63;4.57;;;;;;;;;;5023386;28;20221;-50
2021/04/23 10:46:15;;;;;;;12.27;5.57;;;;;;;;;;5023430;28;20266;-50
2021/04/23 10:48:45;;;;;;;9.27;5.18;;;;;;;;;;5016908;28;20244;-48
2021/04/23 10:51:19;;;;;;;9.93;4.93;;;;;;;;;;5023307;28;20271;-48
2021/04/23 10:53:53;;;;;;;9.05;4.97;;;;;;;;;;5028070;28;20220;-48
2021/04/23 10:57:50;;;;;;;10.82;5.40;;;;;;;;;;5055877;27;86038;-48
2021/04/23 11:02:34;;;;;;;10.68;4.50;;;;;;;;;;4998397;28;20572;-51
2021/04/23 11:05:00;;;;;;;10.07;4.25;;;;;;;;;;4983976;28;20465;-52
2021/04/23 11:07:26;;;;;;;10.25;4.35;;;;;;;;;;4986151;28;20558;-52
2021/04/23 11:10:07;;;;;;;8.38;3.72;;;;;;;;;;4983517;28;20192;-50
2021/04/23 11:12:35;;;;;;;9.02;4.72;;;;;;;;;;4984698;28;20278;-50
2021/04/23 11:15:16;;;;;;;14.90;4.82;;;;;;;;;;4983459;28;20204;-51
2021/04/23 11:17:44;;;;;;;7.47;4.30;;;;;;;;;;4985115;28;20572;-51
2021/04/23 11:20:30;;;;;;;9.52;3.75;;;;;;;;;;4973652;28;20339;-51
2021/04/23 11:22:57;;;;;;;8.07;4.20;;;;;;;;;;4975396;28;20200;-50
2021/04/23 11:25:25;;;;;;;7.50;4.60;;;;;;;;;;4983433;28;20211;-49
2021/04/23 11:28:02;;;;;;;8.18;4.85;;;;;;;;;;4980594;28;20333;-49
2021/04/23 11:30:29;;;;;;;11.20;5.55;;;;;;;;;;5002649;28;20794;-54
2021/04/23 11:32:56;;;;;;;8.23;4.97;;;;;;;;;;5002958;28;20287;-52
2021/04/23 11:35:26;;;;;;;10.70;5.00;;;;;;;;;;5001726;28;20222;-52
2021/04/23 11:37:59;;;;;;;9.03;5.03;;;;;;;;;;4987215;28;20214;-50
2021/04/23 11:40:30;;;;;;;8.60;4.65;;;;;;;;;;4998560;28;20787;-51
2021/04/23 11:43:01;;;;;;;14.02;5.32;;;;;;;;;;5005462;28;20207;-53
2021/04/23 11:45:36;;;;;;;11.57;4.57;;;;;;;;;;5002385;28;20219;-52
2021/04/23 11:48:10;;;;;;;9.53;4.63;;;;;;;;;;5003188;28;21092;-52
2021/04/23 11:50:45;;;;;;;19.90;5.07;;;;;;;;;;5003856;28;20234;-50
2021/04/23 11:53:21;;;;;;;10.65;4.00;;;;;;;;;;5004509;28;20848;-52
2021/04/23 11:57:32;;;;;;;12.25;4.45;;;;;;;;;;5056785;27;20604;-52
2021/04/23 12:00:07;;;;;;;9.38;5.22;;;;;;;;;;5041845;28;20186;-50
2021/04/23 12:02:58;;;;;;;8.23;4.43;;;;;;;;;;5040600;28;20243;-50
2021/04/23 12:05:26;;;;;;;12.57;4.60;;;;;;;;;;5032278;28;20218;-51
2021/04/23 12:07:55;;;;;;;8.88;4.65;;;;;;;;;;5018912;28;20727;-47
2021/04/23 12:10:21;;;;;;;10.65;4.95;;;;;;;;;;5020738;28;20228;-50
2021/04/23 12:12:47;;;;;;;11.32;5.10;;;;;;;;;;5039209;28;20838;-49
2021/04/23 12:15:24;;;;;;;8.63;4.88;;;;;;;;;;5023758;28;20237;-50
2021/04/23 12:17:49;;;;;;;10.32;4.93;;;;;;;;;;5022129;28;20605;-51
2021/04/23 12:20:39;;;;;;;6.32;4.35;;;;;;;;;;5019504;28;20237;-50
2021/04/23 12:23:08;;;;;;;7.70;4.50;;;;;;;;;;5014625;28;20184;-50
2021/04/23 12:25:55;;;;;;;11.53;4.77;;;;;;;;;;5020886;28;20584;-49
2021/04/23 12:28:22;;;;;;;10.60;4.82;;;;;;;;;;5019670;28;20580;-50
2021/04/23 12:30:50;;;;;;;8.10;4.67;;;;;;;;;;5022719;28;20178;-50
2021/04/23 12:33:16;;;;;;;8.73;4.53;;;;;;;;;;5019022;28;20193;-50
2021/04/23 12:35:42;;;;;;;9.27;4.80;;;;;;;;;;5017294;28;20203;-51
2021/04/23 12:38:11;;;;;;;10.70;5.15;;;;;;;;;;5023923;28;20190;-49
2021/04/23 12:40:39;;;;;;;7.38;4.38;;;;;;;;;;5016733;28;20183;-49
2021/04/23 12:43:17;;;;;;;9.30;4.70;;;;;;;;;;5020481;28;20178;-50
2021/04/23 12:45:46;;;;;;;5.57;4.22;;;;;;;;;;5015724;28;20745;-50
2021/04/23 12:48:15;;;;;;;7.35;4.00;;;;;;;;;;5022828;28;20179;-50
2021/04/23 12:50:46;;;;;;;8.20;4.65;;;;;;;;;;5023566;28;20179;-50
2021/04/23 12:53:16;;;;;;;11.13;4.25;;;;;;;;;;5019344;28;20186;-50
2021/04/23 12:55:42;;;;;;;8.43;5.38;;;;;;;;;;5019714;28;20289;-49
2021/04/23 12:58:08;;;;;;;10.48;4.63;;;;;;;;;;5022921;28;20719;-49
2021/04/23 13:00:36;;;;;;;9.15;4.80;;;;;;;;;;5036056;28;20175;-50
2021/04/23 13:03:03;;;;;;;10.43;5.40;;;;;;;;;;5021337;28;20638;-50
2021/04/23 13:05:29;;;;;;;6.85;4.65;;;;;;;;;;5021758;28;20760;-51
2021/04/23 13:08:03;;;;;;;8.07;4.13;;;;;;;;;;5014094;28;20187;-52
2021/04/23 13:10:42;;;;;;;10.20;5.10;;;;;;;;;;5010626;28;20191;-52
2021/04/23 13:13:14;;;;;;;7.72;4.43;;;;;;;;;;5008630;28;20182;-50
2021/04/23 13:15:41;;;;;;;8.48;4.50;;;;;;;;;;5005856;28;20583;-51
2021/04/23 13:18:22;;;;;;;9.13;4.40;;;;;;;;;;5004775;28;20274;-49
2021/04/23 13:20:53;;;;;;;7.10;4.13;;;;;;;;;;5008310;28;20218;-49
2021/04/23 13:23:36;;;;;;;7.43;4.47;;;;;;;;;;5004522;28;20211;-49
2021/04/23 13:26:03;;;;;;;9.47;4.70;;;;;;;;;;5005483;28;20567;-49
2021/04/23 13:28:31;;;;;;;8.33;4.57;;;;;;;;;;5006387;28;20184;-49
2021/04/23 13:31:00;;;;;;;9.30;4.23;;;;;;;;;;5006675;28;20198;-50
2021/04/23 13:33:30;;;;;;;6.90;3.80;;;;;;;;;;5006155;28;20554;-50
2021/04/23 13:36:04;;;;;;;9.57;4.20;;;;;;;;;;5009272;28;20194;-51
2021/04/23 13:38:40;;;;;;;9.20;4.80;;;;;;;;;;5004384;28;20245;-50
